createdAt,value
2022-08-10T00:04:07.126Z,1.80
2022-08-10T00:09:08.958Z,1.60
2022-08-10T00:14:10.911Z,1.80
2022-08-10T00:19:12.976Z,1.67
2022-08-10T00:24:19.405Z,2.03
2022-08-10T00:29:21.374Z,1.95
2022-08-10T00:34:23.871Z,1.92
2022-08-10T00:39:26.819Z,1.80
2022-08-10T00:44:28.991Z,1.95
2022-08-10T00:49:31.385Z,1.98
2022-08-10T00:54:35.925Z,2.28
2022-08-10T00:59:38.574Z,2.00
2022-08-10T01:05:07.576Z,2.10
2022-08-10T01:10:28.297Z,2.17
2022-08-10T01:15:37.746Z,2.10
2022-08-10T01:20:51.682Z,1.73
2022-08-10T01:26:30.501Z,2.10
2022-08-10T01:31:38.571Z,1.90
2022-08-10T01:36:52.487Z,2.30
2022-08-10T01:42:00.310Z,2.07
2022-08-10T01:47:27.541Z,1.90
2022-08-10T01:52:32.996Z,2.00
2022-08-10T01:57:37.804Z,2.13
2022-08-10T02:02:42.477Z,2.15
2022-08-10T02:07:46.947Z,2.70
2022-08-10T02:12:50.034Z,2.30
2022-08-10T02:17:58.184Z,2.10
2022-08-10T02:23:08.722Z,2.10
2022-08-10T02:28:29.646Z,2.27
2022-08-10T02:33:37.315Z,2.27
2022-08-10T02:38:59.728Z,2.07
2022-08-10T02:45:22.446Z,2.17
2022-08-10T02:49:38.777Z,2.50
2022-08-10T02:54:51.047Z,2.57
2022-08-10T02:59:57.893Z,2.70
2022-08-10T03:05:14.243Z,2.27
2022-08-10T03:10:26.707Z,2.50
2022-08-10T03:15:34.568Z,2.57
2022-08-10T03:20:40.781Z,2.60
2022-08-10T03:25:53.629Z,2.20
2022-08-10T03:30:58.410Z,3.60
2022-08-10T03:36:40.225Z,2.53
2022-08-10T03:41:53.354Z,3.40
2022-08-10T03:47:00.466Z,2.63
2022-08-10T03:52:03.100Z,2.77
2022-08-10T03:57:05.334Z,2.90
2022-08-10T04:02:47.141Z,2.73
2022-08-10T04:07:30.784Z,2.80
2022-08-10T04:12:33.038Z,3.17
2022-08-10T04:18:02.593Z,3.30
2022-08-10T04:22:59.489Z,3.10
2022-08-10T04:28:03.530Z,3.23
2022-08-10T04:33:07.997Z,3.17
2022-08-10T04:38:11.030Z,3.03
2022-08-10T04:43:13.687Z,3.30
2022-08-10T04:48:43.227Z,3.00
2022-08-10T04:54:02.729Z,3.60
2022-08-10T04:59:00.777Z,3.20
2022-08-10T05:04:34.488Z,3.70
2022-08-10T05:09:24.758Z,3.57
2022-08-10T05:14:26.709Z,3.53
2022-08-10T05:20:01.729Z,4.80
2022-08-10T05:24:50.664Z,4.37
2022-08-10T05:30:02.385Z,4.70
2022-08-10T05:35:05.903Z,4.73
2022-08-10T05:40:08.729Z,5.40
2022-08-10T05:45:24.875Z,5.32
2022-08-10T05:50:28.253Z,4.95
2022-08-10T05:55:31.225Z,4.93
2022-08-10T06:00:41.841Z,4.75
2022-08-10T06:05:53.423Z,4.97
2022-08-10T06:12:26.364Z,4.88
2022-08-10T06:16:20.223Z,5.10
2022-08-10T06:21:23.091Z,5.15
2022-08-10T06:26:25.086Z,5.65
2022-08-10T06:31:32.782Z,5.15
2022-08-10T06:36:53.038Z,4.95
2022-08-10T06:42:16.460Z,5.10
2022-08-10T06:47:23.300Z,4.70
2022-08-10T06:52:26.666Z,4.38
2022-08-10T06:57:31.407Z,4.90
2022-08-10T07:02:58.625Z,4.97
2022-08-10T07:08:02.126Z,5.18
2022-08-10T07:13:04.674Z,4.50
2022-08-10T07:18:07.021Z,3.75
2022-08-10T07:23:57.780Z,4.65
2022-08-10T07:28:35.397Z,4.53
2022-08-10T07:33:40.028Z,4.55
2022-08-10T07:38:43.709Z,4.43
2022-08-10T07:43:48.001Z,4.40
2022-08-10T07:49:00.109Z,4.82
2022-08-10T07:54:05.998Z,4.07
2022-08-10T07:59:10.922Z,4.55
2022-08-10T08:04:13.908Z,4.15
2022-08-10T08:09:16.125Z,3.47
2022-08-10T08:14:21.910Z,3.78
2022-08-10T08:19:26.790Z,3.60
2022-08-10T08:24:34.129Z,3.88
2022-08-10T08:29:41.323Z,4.20
2022-08-10T08:34:45.589Z,4.18
2022-08-10T08:39:48.557Z,4.15
2022-08-10T08:45:06.332Z,3.30
2022-08-10T08:50:29.156Z,3.20
2022-08-10T08:56:05.596Z,3.60
2022-08-10T09:01:13.370Z,3.47
2022-08-10T09:06:34.366Z,3.30
2022-08-10T09:12:01.349Z,2.95
2022-08-10T09:17:15.314Z,3.30
2022-08-10T09:22:29.539Z,2.97
2022-08-10T09:27:43.371Z,2.75
2022-08-10T09:36:16.586Z,3.05
2022-08-10T09:38:26.973Z,2.45
2022-08-10T09:43:35.503Z,3.35
2022-08-10T09:49:03.153Z,2.78
2022-08-10T09:54:42.361Z,3.00
2022-08-10T10:00:12.919Z,3.00
2022-08-10T10:05:56.342Z,3.08
2022-08-10T10:11:33.775Z,2.63
2022-08-10T10:16:47.781Z,2.67
2022-08-10T10:22:13.032Z,2.58
2022-08-10T10:27:17.858Z,2.88
2022-08-10T10:32:55.867Z,2.67
2022-08-10T10:38:03.685Z,2.80
2022-08-10T10:43:21.321Z,2.40
2022-08-10T10:48:56.686Z,2.60
2022-08-10T10:54:19.299Z,2.40
2022-08-10T10:59:55.621Z,2.22
2022-08-10T11:05:14.218Z,2.00
2022-08-10T11:10:32.010Z,2.20
2022-08-10T11:15:47.415Z,2.33
2022-08-10T11:21:09.573Z,2.67
2022-08-10T11:26:49.774Z,2.40
2022-08-10T11:32:03.537Z,2.10
2022-08-10T11:38:31.468Z,2.42
2022-08-10T11:43:10.594Z,2.10
2022-08-10T11:48:54.508Z,2.55
2022-08-10T11:53:53.551Z,2.25
2022-08-10T11:59:17.179Z,2.28
2022-08-10T12:04:21.890Z,2.10
2022-08-10T12:10:09.686Z,2.15
2022-08-10T12:15:02.624Z,2.10
2022-08-10T12:20:10.856Z,2.42
2022-08-10T12:25:56.410Z,2.28
2022-08-10T12:30:54.111Z,2.10
2022-08-10T12:36:18.420Z,2.30
2022-08-10T12:41:43.886Z,2.40
2022-08-10T12:46:50.997Z,2.15
2022-08-10T12:52:12.349Z,2.50
2022-08-10T12:57:24.704Z,2.10
2022-08-10T13:02:29.610Z,2.08
2022-08-10T13:08:25.580Z,2.25
2022-08-10T13:12:58.644Z,2.55
2022-08-10T13:18:03.921Z,2.47
2022-08-10T13:23:16.013Z,2.08
2022-08-10T13:28:37.278Z,2.05
2022-08-10T13:34:40.733Z,1.80
2022-08-10T13:39:12.119Z,2.38
2022-08-10T13:44:28.944Z,1.88
2022-08-10T13:49:35.593Z,1.85
2022-08-10T13:54:41.662Z,1.98
2022-08-10T14:00:37.545Z,2.03
2022-08-10T14:05:14.937Z,2.03
2022-08-10T14:10:17.913Z,1.80
2022-08-10T14:15:43.368Z,1.70
2022-08-10T14:20:47.243Z,1.77
2022-08-10T14:25:52.704Z,2.40
2022-08-10T14:30:58.749Z,2.10
2022-08-10T14:36:18.630Z,2.15
2022-08-10T14:42:04.190Z,2.03
2022-08-10T14:46:57.225Z,2.50
2022-08-10T14:52:02.808Z,2.22
2022-08-10T14:57:11.455Z,1.92
2022-08-10T15:02:38.847Z,2.45
2022-08-10T15:07:40.731Z,2.20
2022-08-10T15:12:46.902Z,2.47
2022-08-10T15:17:57.488Z,2.30
2022-08-10T15:23:30.847Z,2.20
2022-08-10T15:29:05.942Z,2.20
2022-08-10T15:34:21.851Z,2.20
2022-08-10T15:40:21.328Z,2.05
2022-08-10T15:45:00.877Z,1.90
2022-08-10T15:50:07.287Z,2.03
2022-08-10T15:55:43.451Z,1.73
2022-08-10T16:02:14.206Z,2.05
2022-08-10T16:06:59.013Z,2.40
2022-08-10T16:12:32.545Z,2.58
2022-08-10T16:17:55.269Z,2.10
2022-08-10T16:23:01.178Z,2.05
2022-08-10T16:28:06.053Z,2.40
2022-08-10T16:33:11.312Z,2.53
2022-08-10T16:38:14.108Z,2.28
2022-08-10T16:43:23.678Z,2.35
2022-08-10T16:48:49.589Z,2.20
2022-08-10T16:53:53.790Z,2.47
2022-08-10T16:58:57.418Z,2.63
2022-08-10T17:04:09.648Z,2.30
2022-08-10T17:09:19.398Z,2.20
2022-08-10T17:14:27.333Z,2.90
2022-08-10T17:19:37.231Z,2.50
2022-08-10T17:24:46.483Z,2.42
2022-08-10T17:30:03.504Z,2.40
2022-08-10T17:35:12.014Z,2.60
2022-08-10T17:40:26.305Z,2.53
2022-08-10T17:45:46.281Z,2.83
2022-08-10T17:50:52.485Z,2.42
2022-08-10T17:55:57.089Z,3.00
2022-08-10T18:01:40.618Z,2.90
2022-08-10T18:06:25.709Z,2.28
2022-08-10T18:11:31.113Z,2.60
2022-08-10T18:16:34.790Z,2.40
2022-08-10T18:21:43.567Z,2.83
2022-08-10T18:26:51.159Z,2.53
2022-08-10T18:31:59.257Z,3.00
2022-08-10T18:37:05.233Z,2.45
2022-08-10T18:42:14.186Z,2.58
2022-08-10T18:47:21.101Z,2.67
2022-08-10T18:52:26.213Z,2.53
2022-08-10T18:57:44.687Z,2.90
2022-08-10T19:03:11.362Z,2.88
2022-08-10T19:08:37.206Z,2.85
2022-08-10T19:14:12.938Z,3.10
2022-08-10T19:19:23.122Z,3.00
2022-08-10T19:24:41.634Z,2.70
2022-08-10T19:30:11.953Z,2.75
2022-08-10T19:35:27.409Z,3.00
2022-08-10T19:40:59.103Z,2.45
2022-08-10T19:46:36.341Z,3.17
2022-08-10T19:52:10.979Z,2.80
2022-08-10T19:57:36.293Z,2.20
2022-08-10T20:02:52.668Z,2.53
2022-08-10T20:08:24.039Z,3.28
2022-08-10T20:13:40.548Z,2.65
2022-08-10T20:18:50.883Z,2.13
2022-08-10T20:24:08.252Z,2.50
2022-08-10T20:29:16.429Z,2.47
2022-08-10T20:34:31.774Z,2.85
2022-08-10T20:40:09.892Z,2.65
2022-08-10T20:45:21.801Z,2.70
2022-08-10T20:50:33.809Z,2.33
2022-08-10T20:55:54.332Z,2.28
2022-08-10T21:01:16.887Z,2.30
2022-08-10T21:06:55.168Z,3.13
2022-08-10T21:12:19.094Z,2.30
2022-08-10T21:17:37.393Z,2.60
2022-08-10T21:22:44.910Z,2.30
2022-08-10T21:27:47.232Z,2.33
2022-08-10T21:32:59.358Z,2.00
2022-08-10T21:38:19.445Z,2.40
2022-08-10T21:44:06.858Z,2.00
2022-08-10T21:49:36.913Z,2.30
2022-08-10T21:55:03.377Z,2.63
2022-08-10T22:00:29.699Z,2.20
2022-08-10T22:05:56.262Z,2.22
2022-08-10T22:11:20.246Z,2.60
2022-08-10T22:17:06.016Z,2.28
2022-08-10T22:23:24.898Z,2.45
2022-08-10T22:28:48.866Z,2.10
2022-08-10T22:34:26.707Z,2.33
2022-08-10T22:40:20.664Z,2.03
2022-08-10T22:45:41.184Z,2.80
2022-08-10T22:50:44.656Z,2.38
2022-08-10T22:56:17.634Z,2.05
2022-08-10T23:02:07.010Z,2.20
2022-08-10T23:07:16.544Z,2.30
2022-08-10T23:12:33.229Z,2.13
2022-08-10T23:18:00.809Z,2.25
2022-08-10T23:23:09.915Z,3.03
2022-08-10T23:28:15.723Z,2.58
2022-08-10T23:33:38.082Z,2.50
2022-08-10T23:38:42.021Z,2.70
2022-08-10T23:44:03.205Z,2.28
2022-08-10T23:49:07.655Z,2.78
2022-08-10T23:54:16.389Z,2.78
2022-08-10T23:59:22.424Z,2.40
